Time;durP1;ratioP1;P1;durP2;ratioP2;P2;SDS_P1;SDS_P2;PMS_P1;PMS_P2;Temp;Humidity;BMP_temperature;BMP_pressure;BME280_temperature;BME280_humidity;BME280_pressure;Samples;Min_cycle;Max_cycle;Signal;HPM_P1;HPM_P2
2022/01/19 00:02:07;;;;;;;10.02;9.27;;;;;;;;;;7325904;19;154002;-14
2022/01/19 00:04:39;;;;;;;9.90;9.20;;;;;;;;;;7325482;19;153610;-15
2022/01/19 00:07:10;;;;;;;10.50;9.60;;;;;;;;;;7333189;19;162050;-14
2022/01/19 00:09:41;;;;;;;9.73;9.02;;;;;;;;;;7332314;19;162352;-15
2022/01/19 00:12:13;;;;;;;9.80;9.00;;;;;;;;;;7335314;19;153866;-13
2022/01/19 00:14:44;;;;;;;9.48;8.88;;;;;;;;;;7332610;19;153664;-14
2022/01/19 00:17:18;;;;;;;9.18;8.45;;;;;;;;;;7336116;19;162021;-14
2022/01/19 00:19:49;;;;;;;9.27;8.63;;;;;;;;;;7334029;19;162492;-14
2022/01/19 00:22:20;;;;;;;9.07;8.43;;;;;;;;;;7337207;19;154225;-14
2022/01/19 00:24:51;;;;;;;9.00;8.40;;;;;;;;;;7333400;19;153503;-14
2022/01/19 00:27:22;;;;;;;9.32;8.65;;;;;;;;;;7332752;19;161931;-14
2022/01/19 00:29:54;;;;;;;9.50;8.80;;;;;;;;;;7332711;19;162652;-14
2022/01/19 00:32:29;;;;;;;8.80;8.20;;;;;;;;;;7333030;19;154013;-14
2022/01/19 00:35:01;;;;;;;8.48;7.88;;;;;;;;;;7335469;19;153760;-14
2022/01/19 00:37:32;;;;;;;8.98;8.38;;;;;;;;;;7331203;19;161904;-15
2022/01/19 00:40:03;;;;;;;8.65;7.95;;;;;;;;;;7333644;19;162412;-14
2022/01/19 00:42:35;;;;;;;8.57;7.97;;;;;;;;;;7335931;19;154421;-15
2022/01/19 00:45:08;;;;;;;8.65;8.00;;;;;;;;;;7337353;19;153571;-15
2022/01/19 00:47:42;;;;;;;8.80;8.10;;;;;;;;;;7333727;19;161854;-14
2022/01/19 00:50:17;;;;;;;8.90;8.30;;;;;;;;;;7329381;19;162472;-14
2022/01/19 00:52:51;;;;;;;7.93;7.43;;;;;;;;;;7334663;19;154233;-13
2022/01/19 00:55:24;;;;;;;8.70;8.10;;;;;;;;;;7334083;19;153841;-15
2022/01/19 00:57:56;;;;;;;7.60;7.10;;;;;;;;;;7332726;19;161781;-14
2022/01/19 01:00:32;;;;;;;8.18;7.47;;;;;;;;;;7333165;19;162691;-14
2022/01/19 01:03:07;;;;;;;7.53;7.03;;;;;;;;;;7334610;19;154018;-15
2022/01/19 01:05:39;;;;;;;8.50;7.80;;;;;;;;;;7330378;19;153495;-15
2022/01/19 01:08:10;;;;;;;7.65;7.13;;;;;;;;;;7329529;19;161793;-14
2022/01/19 01:10:43;;;;;;;7.43;6.93;;;;;;;;;;7332461;19;162610;-14
2022/01/19 01:15:23;;;;;;;;;;;;;;;;;;7331261;19;154084;-14
2022/01/19 01:16:17;;;;;;;7.43;6.93;;;;;;;;;;7325907;19;153481;-14
2022/01/19 01:18:51;;;;;;;8.03;7.23;;;;;;;;;;7327524;19;161834;-15
2022/01/19 01:21:22;;;;;;;6.75;6.35;;;;;;;;;;7331253;19;162401;-14
2022/01/19 01:23:54;;;;;;;7.18;6.68;;;;;;;;;;7328760;19;153978;-14
2022/01/19 01:26:25;;;;;;;7.28;6.82;;;;;;;;;;7331750;19;153515;-14
2022/01/19 01:28:57;;;;;;;7.32;6.80;;;;;;;;;;7328994;19;162150;-14
2022/01/19 01:31:28;;;;;;;6.97;6.47;;;;;;;;;;7330106;19;162507;-14
2022/01/19 01:34:02;;;;;;;7.72;7.13;;;;;;;;;;7331875;19;154069;-15
2022/01/19 01:36:33;;;;;;;7.63;6.93;;;;;;;;;;7328926;19;153504;-14
2022/01/19 01:39:05;;;;;;;7.65;7.07;;;;;;;;;;7329180;19;162042;-15
2022/01/19 01:41:36;;;;;;;6.88;6.40;;;;;;;;;;7330900;19;162386;-14
2022/01/19 01:44:15;;;;;;;6.95;6.45;;;;;;;;;;7329615;19;154154;-14
2022/01/19 01:46:50;;;;;;;7.07;6.47;;;;;;;;;;7331110;19;153602;-14
2022/01/19 01:49:28;;;;;;;6.93;6.45;;;;;;;;;;7329094;19;161979;-15
2022/01/19 01:54:49;;;;;;;3.20;3.00;;;;;;;;;;7325916;19;154080;-14
2022/01/19 01:57:20;;;;;;;4.10;3.90;;;;;;;;;;7326538;19;153333;-17
2022/01/19 08:36:06;;;;;;;2.75;2.10;;;;;;;;;;7373308;19;132601;-14
2022/01/19 08:38:40;;;;;;;1.95;1.60;;;;;;;;;;7364006;19;153679;-13
2022/01/19 08:41:44;;;;;;;2.50;1.60;;;;;;;;;;7363040;19;161959;-12
2022/01/19 08:44:15;;;;;;;2.70;1.95;;;;;;;;;;7361557;19;162362;-14
2022/01/19 08:46:54;;;;;;;2.25;1.98;;;;;;;;;;7362619;19;153974;-14
2022/01/19 08:49:34;;;;;;;1.65;1.55;;;;;;;;;;7364032;19;153557;-16
2022/01/19 08:52:34;;;;;;;2.13;1.98;;;;;;;;;;7363892;19;162748;-15
2022/01/19 08:55:16;;;;;;;2.05;1.80;;;;;;;;;;7362469;19;162421;-15
2022/01/19 08:57:47;;;;;;;1.63;1.52;;;;;;;;;;7363917;19;153854;-15
2022/01/19 09:00:20;;;;;;;2.10;1.90;;;;;;;;;;7363734;19;153543;-15
2022/01/19 09:02:51;;;;;;;2.15;1.75;;;;;;;;;;7363340;19;162083;-15
2022/01/19 09:05:23;;;;;;;2.03;1.60;;;;;;;;;;7361217;19;162693;-14
2022/01/19 09:07:57;;;;;;;1.80;1.70;;;;;;;;;;7363695;19;154303;-15
2022/01/19 09:10:28;;;;;;;1.60;1.50;;;;;;;;;;7364011;19;153596;-14
2022/01/19 09:13:01;;;;;;;2.88;1.60;;;;;;;;;;7363226;19;162128;-15
2022/01/19 09:15:32;;;;;;;1.98;1.70;;;;;;;;;;7363075;19;162701;-15
2022/01/19 09:18:03;;;;;;;1.80;1.70;;;;;;;;;;7363512;19;153965;-15
2022/01/19 09:20:35;;;;;;;2.00;1.80;;;;;;;;;;7363449;19;153894;-13
2022/01/19 09:23:08;;;;;;;1.80;1.63;;;;;;;;;;7362957;19;162062;-14
2022/01/19 09:25:40;;;;;;;1.63;1.52;;;;;;;;;;7360812;19;162524;-15
2022/01/19 09:28:11;;;;;;;1.80;1.30;;;;;;;;;;7363119;19;154122;-14
2022/01/19 09:30:45;;;;;;;1.67;1.58;;;;;;;;;;7363005;19;153506;-15
2022/01/19 09:33:23;;;;;;;2.40;1.45;;;;;;;;;;7362502;19;161864;-14
2022/01/19 09:36:06;;;;;;;1.67;1.58;;;;;;;;;;7344236;19;162413;-14
2022/01/19 09:38:42;;;;;;;1.65;1.48;;;;;;;;;;7333998;19;153981;-14
2022/01/19 09:41:13;;;;;;;1.77;1.67;;;;;;;;;;7333792;19;153508;-14
2022/01/19 09:43:45;;;;;;;1.52;1.40;;;;;;;;;;7333362;19;162025;-14
2022/01/19 09:46:17;;;;;;;1.80;1.70;;;;;;;;;;7331089;19;162371;-14
2022/01/19 09:48:49;;;;;;;2.15;1.83;;;;;;;;;;7333794;19;153944;-14
2022/01/19 09:51:20;;;;;;;1.90;1.80;;;;;;;;;;7333667;19;153596;-14
2022/01/19 09:53:54;;;;;;;1.55;1.30;;;;;;;;;;7332961;19;161823;-15
2022/01/19 09:56:25;;;;;;;1.70;1.60;;;;;;;;;;7331754;19;162580;-15
2022/01/19 09:58:56;;;;;;;1.48;1.40;;;;;;;;;;7333411;19;154148;-15
2022/01/19 10:01:28;;;;;;;1.40;1.30;;;;;;;;;;7333184;19;153790;-15
2022/01/19 10:03:59;;;;;;;1.23;1.20;;;;;;;;;;7332502;19;161826;-27
2022/01/19 10:06:31;;;;;;;1.25;1.25;;;;;;;;;;7330364;19;162526;-15
2022/01/19 10:09:05;;;;;;;1.67;1.58;;;;;;;;;;7331743;19;154091;-14
2022/01/19 10:17:07;;;;;;;1.30;1.30;;;;;;;;;;7332160;19;163184;-14
2022/01/19 10:19:41;;;;;;;1.52;1.42;;;;;;;;;;7332445;19;154231;-14
2022/01/19 10:22:15;;;;;;;1.50;1.30;;;;;;;;;;7332118;19;153568;-14
2022/01/19 10:24:51;;;;;;;1.33;1.30;;;;;;;;;;7331407;19;161820;-14
2022/01/19 10:27:28;;;;;;;1.48;1.38;;;;;;;;;;7331746;19;162385;-14
2022/01/19 10:30:25;;;;;;;1.35;1.30;;;;;;;;;;7332358;19;154194;-14
2022/01/19 10:33:00;;;;;;;2.45;1.60;;;;;;;;;;7329232;19;153502;-14
2022/01/19 10:35:33;;;;;;;1.20;1.20;;;;;;;;;;7331358;19;162089;-14
2022/01/19 10:38:25;;;;;;;1.58;1.48;;;;;;;;;;7331844;19;162482;-14
2022/01/19 10:41:12;;;;;;;1.52;1.42;;;;;;;;;;7332253;19;154190;-14
2022/01/19 10:43:47;;;;;;;1.25;1.25;;;;;;;;;;7331913;19;153583;-14
2022/01/19 10:46:28;;;;;;;1.23;1.20;;;;;;;;;;7329613;19;161805;-14
2022/01/19 10:49:02;;;;;;;1.30;1.30;;;;;;;;;;7330876;19;162430;-14
2022/01/19 10:51:36;;;;;;;1.35;1.25;;;;;;;;;;7331576;19;154106;-13
2022/01/19 10:54:16;;;;;;;1.23;1.23;;;;;;;;;;7331400;19;153559;-13
2022/01/19 10:56:57;;;;;;;1.17;1.17;;;;;;;;;;7331270;19;161780;-15
2022/01/19 10:59:30;;;;;;;1.52;1.30;;;;;;;;;;7333875;19;162597;-16
2022/01/19 11:02:05;;;;;;;1.13;1.13;;;;;;;;;;7335197;19;153908;-13
2022/01/19 11:04:39;;;;;;;1.30;1.30;;;;;;;;;;7333868;19;153473;-14
2022/01/19 11:07:15;;;;;;;1.35;1.30;;;;;;;;;;7328023;19;162020;-14
2022/01/19 11:09:57;;;;;;;1.45;1.40;;;;;;;;;;7330722;19;162500;-14
2022/01/19 11:12:35;;;;;;;1.20;1.20;;;;;;;;;;7329878;19;153991;-14
2022/01/19 11:15:07;;;;;;;1.40;1.30;;;;;;;;;;7331022;19;153491;-14
2022/01/19 11:17:40;;;;;;;1.00;1.00;;;;;;;;;;7330633;19;161866;-14
2022/01/19 11:20:13;;;;;;;1.67;1.58;;;;;;;;;;7334008;19;162350;-13
2022/01/19 11:23:09;;;;;;;1.25;1.23;;;;;;;;;;7331618;19;153959;-14
2022/01/19 11:25:52;;;;;;;1.30;1.20;;;;;;;;;;7333040;19;153495;-14
2022/01/19 11:28:33;;;;;;;;;;;;;;;;;;7332190;19;162024;-13
2022/01/19 11:31:08;;;;;;;1.25;1.20;;;;;;;;;;7330266;19;162646;-13
2022/01/19 11:33:44;;;;;;;1.40;1.30;;;;;;;;;;7333104;19;153927;-14
2022/01/19 11:36:24;;;;;;;1.30;1.20;;;;;;;;;;7330202;19;153672;-14
2022/01/19 11:38:56;;;;;;;1.20;1.20;;;;;;;;;;7329841;19;161908;-14
2022/01/19 11:41:45;;;;;;;1.10;1.10;;;;;;;;;;7329938;19;162072;-15
2022/01/19 11:44:22;;;;;;;1.20;1.20;;;;;;;;;;7330307;19;153812;-15
2022/01/19 11:46:55;;;;;;;1.10;1.10;;;;;;;;;;7328213;19;153479;-14
2022/01/19 11:49:48;;;;;;;0.97;0.97;;;;;;;;;;7333097;19;161813;-14
2022/01/19 11:52:22;;;;;;;1.20;1.20;;;;;;;;;;7329609;19;162436;-15
2022/01/19 11:54:54;;;;;;;1.40;1.30;;;;;;;;;;7329973;19;153937;-15
2022/01/19 11:57:30;;;;;;;2.20;1.40;;;;;;;;;;7329831;19;153647;-15
2022/01/19 12:00:22;;;;;;;1.42;1.30;;;;;;;;;;7328441;19;161806;-15
2022/01/19 12:02:56;;;;;;;1.13;1.13;;;;;;;;;;7332300;19;162401;-14
2022/01/19 12:05:47;;;;;;;;;;;;;;;;;;7329899;19;154181;-12
2022/01/19 12:08:30;;;;;;;1.25;1.25;;;;;;;;;;7329812;19;153325;-12
2022/01/19 12:11:13;;;;;;;1.15;1.15;;;;;;;;;;7328771;19;161849;-15
2022/01/19 12:16:53;;;;;;;1.00;1.00;;;;;;;;;;7332843;19;153973;-13
2022/01/19 12:19:27;;;;;;;1.23;1.23;;;;;;;;;;7328387;19;153519;-14
2022/01/19 12:22:08;;;;;;;1.10;1.10;;;;;;;;;;7327304;19;162176;-16
2022/01/19 12:24:44;;;;;;;1.00;1.00;;;;;;;;;;7328506;19;162546;-15
2022/01/19 12:27:31;;;;;;;1.00;1.00;;;;;;;;;;7325353;19;154153;-15
2022/01/19 12:30:08;;;;;;;1.20;1.10;;;;;;;;;;7327765;19;154504;-14
2022/01/19 12:32:44;;;;;;;1.20;1.20;;;;;;;;;;7330562;19;162036;-13
2022/01/19 12:35:20;;;;;;;1.00;1.00;;;;;;;;;;7325913;19;162428;-13
2022/01/19 12:37:52;;;;;;;1.15;1.15;;;;;;;;;;7331828;19;154051;-15
2022/01/19 12:40:42;;;;;;;1.20;1.20;;;;;;;;;;7328452;19;153543;-14
2022/01/19 12:43:29;;;;;;;1.52;1.13;;;;;;;;;;7327868;19;162174;-14
2022/01/19 12:46:02;;;;;;;1.00;1.00;;;;;;;;;;7326867;19;162473;-15
2022/01/19 12:48:43;;;;;;;1.63;1.53;;;;;;;;;;7328160;19;153992;-14
2022/01/19 12:51:41;;;;;;;1.33;1.30;;;;;;;;;;7328018;19;153539;-14
2022/01/19 12:54:16;;;;;;;1.35;1.25;;;;;;;;;;7327517;19;161852;-13
2022/01/19 12:56:57;;;;;;;2.03;1.42;;;;;;;;;;7327571;19;162322;-15
2022/01/19 12:59:28;;;;;;;2.60;1.30;;;;;;;;;;7327513;19;154085;-15
2022/01/19 13:02:00;;;;;;;1.50;1.40;;;;;;;;;;7328018;19;153592;-14
2022/01/19 13:04:36;;;;;;;1.27;1.20;;;;;;;;;;7327659;19;161800;-14
2022/01/19 13:07:19;;;;;;;1.38;1.27;;;;;;;;;;7326326;19;162782;-15
2022/01/19 13:10:12;;;;;;;1.42;1.33;;;;;;;;;;7326320;19;154156;-14
2022/01/19 13:12:53;;;;;;;1.37;1.30;;;;;;;;;;7339117;19;153594;-15
2022/01/19 13:15:25;;;;;;;1.10;1.10;;;;;;;;;;7334152;19;161927;-15
2022/01/19 13:17:58;;;;;;;1.15;0.95;;;;;;;;;;7334154;19;162484;-14
2022/01/19 13:20:33;;;;;;;1.10;1.10;;;;;;;;;;7334760;19;153968;-15
2022/01/19 13:23:06;;;;;;;1.50;1.40;;;;;;;;;;7334413;19;153399;-14
2022/01/19 13:25:37;;;;;;;1.50;1.40;;;;;;;;;;7333437;19;161878;-13
2022/01/19 13:28:08;;;;;;;1.63;1.17;;;;;;;;;;7331889;19;162359;-13
2022/01/19 13:30:40;;;;;;;1.48;1.10;;;;;;;;;;7335784;19;156206;-14
2022/01/19 13:33:16;;;;;;;1.40;1.30;;;;;;;;;;7337622;19;153533;-14
2022/01/19 13:36:00;;;;;;;1.90;1.40;;;;;;;;;;7330000;19;161905;-14
2022/01/19 13:38:31;;;;;;;;;;;;;;;;;;7338278;19;162425;-14
2022/01/19 13:41:08;;;;;;;2.47;1.23;;;;;;;;;;7336723;19;154338;-13
2022/01/19 13:43:41;;;;;;;1.40;1.30;;;;;;;;;;7336201;19;153573;-14
2022/01/19 13:46:18;;;;;;;1.17;1.17;;;;;;;;;;7336050;19;161793;-14
2022/01/19 13:48:57;;;;;;;1.40;1.30;;;;;;;;;;7330651;19;162500;-14
2022/01/19 13:51:32;;;;;;;1.30;1.17;;;;;;;;;;7333264;19;154163;-14
2022/01/19 13:54:09;;;;;;;1.10;1.10;;;;;;;;;;7331883;19;153672;-14
2022/01/19 13:56:42;;;;;;;1.10;1.10;;;;;;;;;;7332659;19;162047;-15
2022/01/19 13:59:16;;;;;;;1.77;1.35;;;;;;;;;;7331095;19;162569;-14
2022/01/19 14:01:56;;;;;;;1.27;1.02;;;;;;;;;;7332845;19;154006;-14
2022/01/19 14:04:30;;;;;;;1.02;1.02;;;;;;;;;;7333069;19;153448;-13
2022/01/19 14:07:14;;;;;;;1.02;1.02;;;;;;;;;;7332397;19;161935;-14
2022/01/19 14:09:47;;;;;;;1.30;1.20;;;;;;;;;;7335569;19;162525;-14
2022/01/19 14:12:19;;;;;;;;;;;;;;;;;;7334954;19;154148;-14
2022/01/19 14:14:55;;;;;;;1.30;1.17;;;;;;;;;;7335596;19;153387;-15
2022/01/19 14:17:33;;;;;;;1.40;1.10;;;;;;;;;;7335023;19;162516;-15
2022/01/19 14:20:06;;;;;;;1.10;1.00;;;;;;;;;;7333693;19;162362;-13
2022/01/19 14:22:40;;;;;;;;;;;;;;;;;;7336582;19;153971;-19
2022/01/19 14:25:17;;;;;;;3.08;1.13;;;;;;;;;;7332738;19;153324;-15
2022/01/19 14:27:53;;;;;;;1.10;1.10;;;;;;;;;;7331390;19;161809;-22
2022/01/19 14:30:28;;;;;;;;;;;;;;;;;;7332415;19;162426;-14
2022/01/19 14:33:01;;;;;;;0.80;0.80;;;;;;;;;;7332316;19;154211;-15
2022/01/19 14:35:36;;;;;;;0.90;0.90;;;;;;;;;;7331023;19;153608;-24
2022/01/19 14:38:19;;;;;;;1.52;1.40;;;;;;;;;;7334122;19;161835;-15
2022/01/19 14:41:00;;;;;;;1.30;1.20;;;;;;;;;;7334390;19;162446;-15
2022/01/19 14:43:39;;;;;;;1.00;1.00;;;;;;;;;;7334135;19;154152;-14
2022/01/19 14:46:13;;;;;;;1.00;1.00;;;;;;;;;;7335550;19;153604;-15
2022/01/19 14:48:46;;;;;;;0.93;0.93;;;;;;;;;;7333134;19;161766;-23
2022/01/19 14:51:19;;;;;;;0.93;0.85;;;;;;;;;;7331203;19;162798;-15
2022/01/19 14:53:55;;;;;;;1.30;1.20;;;;;;;;;;7333335;19;154030;-14
2022/01/19 14:56:28;;;;;;;1.10;1.00;;;;;;;;;;7334760;19;153595;-15
2022/01/19 14:59:08;;;;;;;0.63;0.63;;;;;;;;;;7335591;19;162005;-14
2022/01/19 15:01:42;;;;;;;0.82;0.70;;;;;;;;;;7331116;19;162470;-18
2022/01/19 15:04:14;;;;;;;1.20;1.10;;;;;;;;;;7333858;19;154005;-15
2022/01/19 15:06:47;;;;;;;1.13;1.10;;;;;;;;;;7331405;19;153450;-15
2022/01/19 15:09:22;;;;;;;0.95;0.90;;;;;;;;;;7328966;19;162019;-15
2022/01/19 15:11:53;;;;;;;1.20;0.90;;;;;;;;;;7334207;19;162411;-14
2022/01/19 15:14:25;;;;;;;1.55;0.82;;;;;;;;;;7333884;19;153980;-14
2022/01/19 15:16:56;;;;;;;8.02;1.38;;;;;;;;;;7334244;19;153936;-15
2022/01/19 15:19:28;;;;;;;1.10;1.00;;;;;;;;;;7330020;19;161602;-15
2022/01/19 15:22:00;;;;;;;1.17;1.05;;;;;;;;;;7329800;19;162363;-14
2022/01/19 15:24:34;;;;;;;0.70;0.70;;;;;;;;;;7330790;19;153992;-14
2022/01/19 15:27:06;;;;;;;0.80;0.80;;;;;;;;;;7330675;19;153548;-14
2022/01/19 15:29:37;;;;;;;0.70;0.70;;;;;;;;;;7328216;19;161814;-14
2022/01/19 15:32:10;;;;;;;0.98;0.80;;;;;;;;;;7329982;19;162425;-15
2022/01/19 15:34:41;;;;;;;1.25;1.00;;;;;;;;;;7327244;19;154310;-14
2022/01/19 15:37:12;;;;;;;1.52;1.00;;;;;;;;;;7330256;19;153538;-14
2022/01/19 15:39:49;;;;;;;1.45;1.35;;;;;;;;;;7329928;19;161923;-14
2022/01/19 15:42:21;;;;;;;1.25;0.82;;;;;;;;;;7329911;19;162475;-16
2022/01/19 15:44:55;;;;;;;0.80;0.80;;;;;;;;;;7330210;19;154232;-15
2022/01/19 15:47:26;;;;;;;1.65;1.05;;;;;;;;;;7330225;19;153525;-13
2022/01/19 15:49:57;;;;;;;0.93;0.93;;;;;;;;;;7327326;19;161865;-14
2022/01/19 15:52:28;;;;;;;1.38;0.77;;;;;;;;;;7329474;19;162991;-14
2022/01/19 15:55:02;;;;;;;0.82;0.80;;;;;;;;;;7330031;19;153959;-15
2022/01/19 15:57:36;;;;;;;0.80;0.80;;;;;;;;;;7332625;19;153471;-15
2022/01/19 16:00:11;;;;;;;0.70;0.70;;;;;;;;;;7330670;19;161821;-14
2022/01/19 16:02:45;;;;;;;0.80;0.80;;;;;;;;;;7332488;19;162695;-15
2022/01/19 16:05:16;;;;;;;1.00;1.00;;;;;;;;;;7333849;19;154003;-15
2022/01/19 16:07:47;;;;;;;0.80;0.80;;;;;;;;;;7329098;19;153688;-13
2022/01/19 16:10:21;;;;;;;0.88;0.77;;;;;;;;;;7329547;19;161702;-14
2022/01/19 16:12:53;;;;;;;0.90;0.90;;;;;;;;;;7329094;19;162357;-14
2022/01/19 16:15:24;;;;;;;0.80;0.80;;;;;;;;;;7329310;19;154088;-13
2022/01/19 16:17:56;;;;;;;0.70;0.70;;;;;;;;;;7329211;19;153811;-14
2022/01/19 16:20:29;;;;;;;0.75;0.75;;;;;;;;;;7328654;19;162060;-14
2022/01/19 16:28:33;;;;;;;0.70;0.70;;;;;;;;;;7331895;19;153575;-15
2022/01/19 16:31:04;;;;;;;1.15;0.80;;;;;;;;;;7331802;19;161805;-15
2022/01/19 16:33:36;;;;;;;0.60;0.60;;;;;;;;;;7328238;19;162406;-15
2022/01/19 16:36:09;;;;;;;2.83;0.95;;;;;;;;;;7328440;19;154380;-15
2022/01/19 16:38:41;;;;;;;1.05;0.82;;;;;;;;;;7328136;19;153739;-15
2022/01/19 16:41:20;;;;;;;0.90;0.80;;;;;;;;;;7326453;19;161824;-14
2022/01/19 16:43:51;;;;;;;1.63;0.70;;;;;;;;;;7327504;19;162136;-15
2022/01/19 16:46:39;;;;;;;1.27;0.73;;;;;;;;;;7332090;19;154026;-16
2022/01/19 16:49:17;;;;;;;2.30;0.85;;;;;;;;;;7332858;19;153610;-15
2022/01/19 16:51:48;;;;;;;1.00;1.00;;;;;;;;;;7333856;19;161871;-15
2022/01/19 16:54:20;;;;;;;2.50;0.85;;;;;;;;;;7334758;19;162391;-15
2022/01/19 16:56:54;;;;;;;0.60;0.60;;;;;;;;;;7334905;19;154226;-14
2022/01/19 16:59:26;;;;;;;0.70;0.70;;;;;;;;;;7335035;19;153663;-15
2022/01/19 17:01:57;;;;;;;0.70;0.70;;;;;;;;;;7334660;19;161813;-16
2022/01/19 17:04:30;;;;;;;0.90;0.90;;;;;;;;;;7334658;19;162584;-15
2022/01/19 17:07:01;;;;;;;0.90;0.90;;;;;;;;;;7334576;19;154484;-15
2022/01/19 17:09:32;;;;;;;1.17;0.60;;;;;;;;;;7334152;19;153457;-15
2022/01/19 17:12:13;;;;;;;0.70;0.70;;;;;;;;;;7333073;19;162073;-24
2022/01/19 17:14:44;;;;;;;0.80;0.80;;;;;;;;;;7334162;19;162362;-17
2022/01/19 17:17:24;;;;;;;0.65;0.65;;;;;;;;;;7334421;19;154830;-16
2022/01/19 17:19:55;;;;;;;0.90;0.90;;;;;;;;;;7334299;19;153528;-15
2022/01/19 17:22:26;;;;;;;0.65;0.65;;;;;;;;;;7333734;19;161769;-14
2022/01/19 17:24:58;;;;;;;0.75;0.60;;;;;;;;;;7333714;19;162555;-13
2022/01/19 17:27:32;;;;;;;0.60;0.60;;;;;;;;;;7333878;19;153966;-13
2022/01/19 17:30:03;;;;;;;0.77;0.75;;;;;;;;;;7331865;19;153534;-13
2022/01/19 17:32:35;;;;;;;0.95;0.70;;;;;;;;;;7333368;19;161854;-13
2022/01/19 17:35:07;;;;;;;0.70;0.70;;;;;;;;;;7331771;19;162339;-13
2022/01/19 17:37:38;;;;;;;0.90;0.90;;;;;;;;;;7333601;19;154025;-14
2022/01/19 17:40:11;;;;;;;2.35;0.70;;;;;;;;;;7333445;19;153501;-13
2022/01/19 17:42:46;;;;;;;0.73;0.68;;;;;;;;;;7333452;19;161950;-15
2022/01/19 17:45:25;;;;;;;0.70;0.70;;;;;;;;;;7333322;19;162610;-15
2022/01/19 17:48:03;;;;;;;1.55;0.90;;;;;;;;;;7333546;19;154022;-15
2022/01/19 17:50:50;;;;;;;0.80;0.80;;;;;;;;;;7332294;19;153658;-15
2022/01/19 17:53:22;;;;;;;0.93;0.70;;;;;;;;;;7333067;19;161880;-14
2022/01/19 17:55:53;;;;;;;0.95;0.90;;;;;;;;;;7332600;19;162737;-15
2022/01/19 17:58:27;;;;;;;0.70;0.70;;;;;;;;;;7333033;19;154082;-14
2022/01/19 18:00:59;;;;;;;1.17;0.80;;;;;;;;;;7333316;19;153548;-14
2022/01/19 18:03:30;;;;;;;0.77;0.70;;;;;;;;;;7332765;19;161852;-15
2022/01/19 18:06:01;;;;;;;0.88;0.88;;;;;;;;;;7332586;19;162819;-15
2022/01/19 18:08:32;;;;;;;0.80;0.80;;;;;;;;;;7332915;19;154008;-14
2022/01/19 18:11:03;;;;;;;0.63;0.60;;;;;;;;;;7331368;19;153608;-14
2022/01/19 18:13:38;;;;;;;0.90;0.80;;;;;;;;;;7332234;19;162181;-15
2022/01/19 18:16:10;;;;;;;0.70;0.70;;;;;;;;;;7332482;19;162501;-15
2022/01/19 18:18:43;;;;;;;0.80;0.80;;;;;;;;;;7332902;19;154124;-15
2022/01/19 18:21:14;;;;;;;0.83;0.80;;;;;;;;;;7332658;19;153688;-15
2022/01/19 18:23:46;;;;;;;0.90;0.90;;;;;;;;;;7332135;19;162091;-15
2022/01/19 18:26:19;;;;;;;0.80;0.80;;;;;;;;;;7332170;19;162362;-14
2022/01/19 18:28:54;;;;;;;0.88;0.88;;;;;;;;;;7332391;19;153993;-15
2022/01/19 18:31:25;;;;;;;0.80;0.80;;;;;;;;;;7330713;19;153541;-14
2022/01/19 18:33:57;;;;;;;0.90;0.80;;;;;;;;;;7331688;19;161865;-16
2022/01/19 18:36:28;;;;;;;0.90;0.90;;;;;;;;;;7332018;19;163197;-14
2022/01/19 18:39:01;;;;;;;0.90;0.90;;;;;;;;;;7331093;19;154176;-15
2022/01/19 18:41:32;;;;;;;1.00;1.00;;;;;;;;;;7332346;19;153586;-14
2022/01/19 18:44:06;;;;;;;1.63;1.10;;;;;;;;;;7331818;19;161783;-15
2022/01/19 18:46:38;;;;;;;1.48;1.23;;;;;;;;;;7331490;19;162589;-14
2022/01/19 18:49:09;;;;;;;1.20;1.10;;;;;;;;;;7331792;19;154071;-14
2022/01/19 18:51:40;;;;;;;1.40;1.30;;;;;;;;;;7330156;19;153978;-14
2022/01/19 18:54:11;;;;;;;1.50;1.40;;;;;;;;;;7331704;19;161811;-15
2022/01/19 18:56:43;;;;;;;1.27;1.17;;;;;;;;;;7331418;19;162486;-16
2022/01/19 18:59:17;;;;;;;1.42;1.33;;;;;;;;;;7331837;19;153978;-15
2022/01/19 19:01:48;;;;;;;1.52;1.42;;;;;;;;;;7331446;19;153608;-14
2022/01/19 19:04:20;;;;;;;1.63;1.52;;;;;;;;;;7329895;19;162297;-14
2022/01/19 19:06:51;;;;;;;1.98;1.80;;;;;;;;;;7330954;19;162407;-13
2022/01/19 19:09:23;;;;;;;1.70;1.60;;;;;;;;;;7329296;19;154216;-16
2022/01/19 19:12:04;;;;;;;1.95;1.85;;;;;;;;;;7329554;19;153557;-16
2022/01/19 19:14:37;;;;;;;1.98;1.83;;;;;;;;;;7330762;19;161832;-15
2022/01/19 19:17:09;;;;;;;2.05;1.95;;;;;;;;;;7330494;19;162582;-15
2022/01/19 19:19:40;;;;;;;1.90;1.80;;;;;;;;;;7330501;19;154216;-15
2022/01/19 19:22:12;;;;;;;1.98;1.80;;;;;;;;;;7330475;19;153510;-15
2022/01/19 19:24:43;;;;;;;2.60;2.03;;;;;;;;;;7330352;19;162515;-16
2022/01/19 19:27:15;;;;;;;2.00;1.90;;;;;;;;;;7329198;19;162689;-15
2022/01/19 19:29:50;;;;;;;2.10;2.00;;;;;;;;;;7330273;19;153787;-16
2022/01/19 19:32:21;;;;;;;3.88;2.60;;;;;;;;;;7328817;19;153560;-16
2022/01/19 19:34:52;;;;;;;4.18;3.30;;;;;;;;;;7328626;19;161883;-16
2022/01/19 19:37:24;;;;;;;5.63;3.05;;;;;;;;;;7330290;19;162405;-15
2022/01/19 19:39:55;;;;;;;3.03;2.83;;;;;;;;;;7330605;19;154071;-16
2022/01/19 19:42:27;;;;;;;3.13;2.83;;;;;;;;;;7330882;19;153565;-15
2022/01/19 19:45:00;;;;;;;3.67;3.10;;;;;;;;;;7330175;19;162110;-16
2022/01/19 19:47:32;;;;;;;3.55;2.78;;;;;;;;;;7329988;19;162542;-17
2022/01/19 19:50:07;;;;;;;4.45;2.97;;;;;;;;;;7329075;19;154015;-14
2022/01/19 19:52:39;;;;;;;16.30;14.63;;;;;;;;;;7327068;19;153702;-13
2022/01/19 19:55:13;;;;;;;27.90;25.00;;;;;;;;;;7329675;19;161653;-14
2022/01/19 19:57:44;;;;;;;28.42;25.42;;;;;;;;;;7328474;19;162198;-14
2022/01/19 20:00:22;;;;;;;31.83;28.42;;;;;;;;;;7328636;19;154132;-15
2022/01/19 20:02:55;;;;;;;33.15;29.50;;;;;;;;;;7329711;19;153538;-14
2022/01/19 20:05:37;;;;;;;28.73;25.73;;;;;;;;;;7329595;19;161893;-14
2022/01/19 20:08:08;;;;;;;23.88;21.50;;;;;;;;;;7329374;19;162495;-15
2022/01/19 20:10:39;;;;;;;28.50;25.25;;;;;;;;;;7328449;19;154285;-14
2022/01/19 20:13:11;;;;;;;25.95;23.25;;;;;;;;;;7327296;19;153586;-14
2022/01/19 20:15:45;;;;;;;26.73;23.98;;;;;;;;;;7329177;19;161987;-13
2022/01/19 20:18:17;;;;;;;25.77;23.17;;;;;;;;;;7329030;19;162519;-14
2022/01/19 20:20:48;;;;;;;27.05;24.35;;;;;;;;;;7328517;19;154316;-14
2022/01/19 20:23:23;;;;;;;27.98;25.33;;;;;;;;;;7327980;19;153747;-16
2022/01/19 20:25:55;;;;;;;26.30;23.70;;;;;;;;;;7327713;19;161877;-13
2022/01/19 20:28:26;;;;;;;26.33;23.83;;;;;;;;;;7328895;19;162351;-15
2022/01/19 20:31:02;;;;;;;28.13;25.38;;;;;;;;;;7329277;19;153755;-15
2022/01/19 20:33:37;;;;;;;28.60;25.67;;;;;;;;;;7326457;19;153603;-14
2022/01/19 20:36:10;;;;;;;26.90;24.38;;;;;;;;;;7328502;19;161981;-15
2022/01/19 20:38:42;;;;;;;28.08;25.17;;;;;;;;;;7328365;19;162340;-15
2022/01/19 20:41:14;;;;;;;27.95;25.25;;;;;;;;;;7328922;19;154269;-15
2022/01/19 20:43:46;;;;;;;25.42;23.08;;;;;;;;;;7327506;19;153728;-15
2022/01/19 20:46:20;;;;;;;27.33;24.02;;;;;;;;;;7328152;19;161980;-14
2022/01/19 20:48:51;;;;;;;24.55;22.17;;;;;;;;;;7328128;19;162515;-15
2022/01/19 20:51:22;;;;;;;26.05;23.48;;;;;;;;;;7328415;19;154619;-15
2022/01/19 20:53:54;;;;;;;25.48;22.98;;;;;;;;;;7324491;19;153989;-15
2022/01/19 20:56:25;;;;;;;25.90;23.15;;;;;;;;;;7327707;19;162380;-14
2022/01/19 20:58:57;;;;;;;23.45;21.05;;;;;;;;;;7327823;19;162123;-14
2022/01/19 21:01:31;;;;;;;23.52;21.13;;;;;;;;;;7327956;19;154136;-15
2022/01/19 21:04:03;;;;;;;24.20;21.80;;;;;;;;;;7331240;19;153591;-14
2022/01/19 21:06:35;;;;;;;23.83;21.30;;;;;;;;;;7329802;19;161881;-15
2022/01/19 21:09:06;;;;;;;22.98;20.67;;;;;;;;;;7330693;19;162143;-15
2022/01/19 21:11:39;;;;;;;24.90;22.30;;;;;;;;;;7330937;19;153737;-14
2022/01/19 21:14:10;;;;;;;;;;;;;;;;;;7327783;19;153666;-14
2022/01/19 21:16:44;;;;;;;22.58;20.38;;;;;;;;;;7328821;19;161961;-15
2022/01/19 21:19:15;;;;;;;22.92;20.67;;;;;;;;;;7326915;19;162273;-15
2022/01/19 21:21:47;;;;;;;22.75;20.33;;;;;;;;;;7327847;19;153871;-14
2022/01/19 21:24:18;;;;;;;22.27;20.17;;;;;;;;;;7327134;19;153701;-14
2022/01/19 21:26:49;;;;;;;22.08;19.98;;;;;;;;;;7330100;19;161535;-14
2022/01/19 21:29:21;;;;;;;21.67;19.40;;;;;;;;;;7326457;19;162728;-14
2022/01/19 21:31:55;;;;;;;22.00;20.00;;;;;;;;;;7328833;19;154171;-14
2022/01/19 21:34:26;;;;;;;21.70;19.50;;;;;;;;;;7334455;19;153430;-14
2022/01/19 21:36:57;;;;;;;20.55;18.75;;;;;;;;;;7336938;19;161853;-14
2022/01/19 21:39:29;;;;;;;22.20;20.15;;;;;;;;;;7337095;19;162520;-13
2022/01/19 21:42:01;;;;;;;21.00;19.02;;;;;;;;;;7336935;19;153964;-14
2022/01/19 21:44:33;;;;;;;20.85;18.90;;;;;;;;;;7335545;19;153794;-14
2022/01/19 21:47:07;;;;;;;21.08;19.02;;;;;;;;;;7333895;19;161774;-14
2022/01/19 21:49:40;;;;;;;19.63;17.73;;;;;;;;;;7334957;19;162533;-15
2022/01/19 21:52:13;;;;;;;20.13;18.23;;;;;;;;;;7336249;19;154126;-14
2022/01/19 21:54:44;;;;;;;19.10;17.35;;;;;;;;;;7334419;19;153584;-14
2022/01/19 21:57:16;;;;;;;19.50;17.60;;;;;;;;;;7335039;19;161812;-13
2022/01/19 21:59:47;;;;;;;18.30;16.63;;;;;;;;;;7334722;19;162159;-14
2022/01/19 22:02:21;;;;;;;18.63;16.92;;;;;;;;;;7332422;19;153948;-14
2022/01/19 22:04:52;;;;;;;17.33;15.73;;;;;;;;;;7335142;19;153623;-13